Time;durP1;ratioP1;P1;durP2;ratioP2;P2;SDS_P1;SDS_P2;PMS_P1;PMS_P2;Temp;Humidity;BMP_temperature;BMP_pressure;BME280_temperature;BME280_humidity;BME280_pressure;Samples;Min_cycle;Max_cycle;Signal;HPM_P1;HPM_P2
2023/04/25 00:00:21;;;;;;;;;;;6.60;99.90;;;;;;5075356;28;20346;-68
2023/04/25 00:02:48;;;;;;;;;;;6.50;99.90;;;;;;5075470;28;19924;-67
2023/04/25 00:05:16;;;;;;;;;;;6.50;99.90;;;;;;5073104;28;19924;-67
2023/04/25 00:07:42;;;;;;;;;;;6.40;99.90;;;;;;5074981;28;20466;-68
2023/04/25 00:10:11;;;;;;;;;;;6.40;99.90;;;;;;5070452;28;20338;-68
2023/04/25 00:12:38;;;;;;;;;;;6.40;99.90;;;;;;5072988;28;19978;-68
2023/04/25 00:15:06;;;;;;;;;;;6.40;99.90;;;;;;5074624;28;19955;-68
2023/04/25 00:17:32;;;;;;;;;;;6.40;99.90;;;;;;5083726;28;19973;-69
2023/04/25 00:19:59;;;;;;;;;;;6.40;99.90;;;;;;5067009;28;20028;-68
2023/04/25 00:22:26;;;;;;;;;;;6.40;99.90;;;;;;5074931;28;20465;-68
2023/04/25 00:24:56;;;;;;;;;;;6.40;99.90;;;;;;5075048;28;19974;-67
2023/04/25 00:27:24;;;;;;;;;;;6.40;99.90;;;;;;5077521;28;19943;-68
2023/04/25 00:29:51;;;;;;;;;;;6.50;99.90;;;;;;5075246;28;19924;-68
2023/04/25 00:32:18;;;;;;;;;;;6.50;99.90;;;;;;5074515;28;19928;-68
2023/04/25 00:34:45;;;;;;;;;;;6.40;99.90;;;;;;5069455;28;19924;-68
2023/04/25 00:37:12;;;;;;;;;;;6.40;99.90;;;;;;5069627;28;19924;-68
2023/04/25 00:39:39;;;;;;;;;;;6.40;99.90;;;;;;5072779;28;19923;-67
2023/04/25 00:42:06;;;;;;;;;;;6.40;99.90;;;;;;5075103;28;19924;-68
2023/04/25 00:44:36;;;;;;;;;;;6.40;99.90;;;;;;5069450;28;19931;-68
2023/04/25 00:47:03;;;;;;;;;;;6.40;99.90;;;;;;5074892;28;19924;-68
2023/04/25 00:49:30;;;;;;;;;;;6.40;99.90;;;;;;5074619;28;19924;-68
2023/04/25 00:51:57;;;;;;;;;;;6.30;99.90;;;;;;5071809;28;19924;-68
2023/04/25 00:54:24;;;;;;;;;;;6.30;99.90;;;;;;5072339;28;20402;-68
2023/04/25 00:56:51;;;;;;;;;;;6.20;99.90;;;;;;5088754;28;19924;-66
2023/04/25 00:59:19;;;;;;;;;;;6.20;99.90;;;;;;5074339;28;19924;-68
2023/04/25 01:01:47;;;;;;;;;;;6.20;99.90;;;;;;5074393;28;20299;-68
2023/04/25 01:04:14;;;;;;;;;;;6.10;99.90;;;;;;5068504;28;20370;-68
2023/04/25 01:06:41;;;;;;;;;;;6.10;99.90;;;;;;5074471;28;19924;-68
2023/04/25 01:09:09;;;;;;;;;;;6.10;99.90;;;;;;5074348;28;19924;-69
2023/04/25 01:11:36;;;;;;;;;;;6.10;99.90;;;;;;5071558;28;19924;-68
2023/04/25 01:14:02;;;;;;;;;;;6.10;99.90;;;;;;5068929;28;19931;-68
2023/04/25 01:16:30;;;;;;;;;;;6.10;99.90;;;;;;5074182;28;19924;-68
2023/04/25 01:18:58;;;;;;;;;;;6.10;99.90;;;;;;5068865;28;19924;-68
2023/04/25 01:21:29;;;;;;;;;;;6.10;99.90;;;;;;5073930;28;19932;-68
2023/04/25 01:23:56;;;;;;;;;;;6.10;99.90;;;;;;5065189;28;19947;-68
2023/04/25 01:26:24;;;;;;;;;;;6.10;99.90;;;;;;5089421;28;19970;-68
2023/04/25 01:28:51;;;;;;;;;;;6.10;99.90;;;;;;5072272;28;19928;-68
2023/04/25 01:31:18;;;;;;;;;;;6.10;99.90;;;;;;5067628;28;19974;-69
2023/04/25 01:33:45;;;;;;;;;;;6.10;99.90;;;;;;5073165;28;19932;-68
2023/04/25 01:36:12;;;;;;;;;;;6.10;99.90;;;;;;5085319;28;19933;-68
2023/04/25 01:38:41;;;;;;;;;;;6.00;99.90;;;;;;5072828;28;19924;-68
2023/04/25 01:41:08;;;;;;;;;;;6.00;99.90;;;;;;5073392;28;20302;-68
2023/04/25 01:43:35;;;;;;;;;;;6.10;99.90;;;;;;5080728;28;20383;-68
2023/04/25 01:46:02;;;;;;;;;;;6.10;99.90;;;;;;5073588;28;19924;-68
2023/04/25 01:48:29;;;;;;;;;;;6.10;99.90;;;;;;5073739;28;19924;-68
2023/04/25 01:50:56;;;;;;;;;;;6.10;99.90;;;;;;5074091;28;20302;-68
2023/04/25 01:53:22;;;;;;;;;;;6.10;99.90;;;;;;5067661;28;19927;-67
2023/04/25 01:55:51;;;;;;;;;;;6.10;99.90;;;;;;5065392;28;20371;-68
2023/04/25 01:58:21;;;;;;;;;;;6.10;99.90;;;;;;5073535;28;19986;-68
2023/04/25 02:01:03;;;;;;;;;;;6.10;99.90;;;;;;5087147;28;20383;-68
2023/04/25 02:03:36;;;;;;;;;;;6.10;99.90;;;;;;5070365;28;19955;-68
2023/04/25 02:06:06;;;;;;;;;;;6.10;99.90;;;;;;5068316;28;19932;-68
2023/04/25 02:08:37;;;;;;;;;;;6.10;99.90;;;;;;5072722;28;20379;-68
2023/04/25 02:11:06;;;;;;;;;;;6.10;99.90;;;;;;5073818;28;19954;-68
2023/04/25 02:13:40;;;;;;;;;;;6.10;99.90;;;;;;5065594;28;19930;-68
2023/04/25 02:16:17;;;;;;;;;;;6.10;99.90;;;;;;5067412;28;19931;-67
2023/04/25 02:18:44;;;;;;;;;;;6.10;99.90;;;;;;5064313;28;20023;-69
2023/04/25 02:21:11;;;;;;;;;;;6.10;99.90;;;;;;5073226;28;19924;-69
2023/04/25 02:23:38;;;;;;;;;;;6.10;99.90;;;;;;5056274;28;20391;-68
2023/04/25 02:26:06;;;;;;;;;;;6.00;99.90;;;;;;5068715;28;19928;-68
2023/04/25 02:28:33;;;;;;;;;;;6.10;99.90;;;;;;5067185;28;19924;-68
2023/04/25 02:31:05;;;;;;;;;;;6.10;99.90;;;;;;5067391;28;19989;-67
2023/04/25 02:33:31;;;;;;;;;;;6.10;99.90;;;;;;5066571;28;19925;-67
2023/04/25 02:35:58;;;;;;;;;;;6.10;99.90;;;;;;5077414;28;20352;-68
2023/04/25 02:38:25;;;;;;;;;;;6.10;99.90;;;;;;5073556;28;19927;-68
2023/04/25 02:40:52;;;;;;;;;;;6.10;99.90;;;;;;5070882;28;20019;-68
2023/04/25 02:43:21;;;;;;;;;;;6.10;99.90;;;;;;5071901;28;19925;-68
2023/04/25 02:45:48;;;;;;;;;;;6.10;99.90;;;;;;5073392;28;20395;-67
2023/04/25 02:48:15;;;;;;;;;;;6.10;99.90;;;;;;5071556;28;19932;-67
2023/04/25 02:50:42;;;;;;;;;;;6.10;99.90;;;;;;5074022;28;19963;-67
2023/04/25 02:53:09;;;;;;;;;;;6.10;99.90;;;;;;5075280;28;20342;-68
2023/04/25 02:55:43;;;;;;;;;;;6.10;99.90;;;;;;5068784;28;20006;-68
2023/04/25 02:58:10;;;;;;;;;;;6.10;99.90;;;;;;5069318;28;19983;-67
2023/04/25 03:00:46;;;;;;;;;;;6.10;99.90;;;;;;5075574;28;20396;-67
2023/04/25 03:03:12;;;;;;;;;;;6.10;99.90;;;;;;5084631;28;19971;-67
2023/04/25 03:05:39;;;;;;;;;;;6.10;99.90;;;;;;5076179;28;19925;-65
2023/04/25 03:08:07;;;;;;;;;;;6.10;99.90;;;;;;5075841;28;20379;-67
2023/04/25 03:10:34;;;;;;;;;;;6.10;99.90;;;;;;5074921;28;19924;-67
2023/04/25 03:13:05;;;;;;;;;;;6.10;99.90;;;;;;5074598;28;20414;-67
2023/04/25 03:15:32;;;;;;;;;;;6.00;99.90;;;;;;5076117;28;20334;-68
2023/04/25 03:18:00;;;;;;;;;;;6.00;99.90;;;;;;5074721;28;20280;-68
2023/04/25 03:20:27;;;;;;;;;;;6.00;99.90;;;;;;5069761;28;19932;-68
2023/04/25 03:22:54;;;;;;;;;;;6.00;99.90;;;;;;5074495;28;19924;-67
2023/04/25 03:25:21;;;;;;;;;;;6.00;99.90;;;;;;5073109;28;19924;-67
2023/04/25 03:27:48;;;;;;;;;;;6.00;99.90;;;;;;5069864;28;19971;-67
2023/04/25 03:30:15;;;;;;;;;;;6.00;99.90;;;;;;5074730;28;19977;-68
2023/04/25 03:32:44;;;;;;;;;;;6.00;99.90;;;;;;5076418;28;19973;-67
2023/04/25 03:35:16;;;;;;;;;;;5.90;99.90;;;;;;5074646;28;19924;-68
2023/04/25 03:37:45;;;;;;;;;;;5.90;99.90;;;;;;5069297;28;19924;-68
2023/04/25 03:40:13;;;;;;;;;;;5.90;99.90;;;;;;5074842;28;20314;-67
2023/04/25 03:43:05;;;;;;;;;;;5.90;99.90;;;;;;5065654;28;19932;-67
2023/04/25 03:45:33;;;;;;;;;;;5.90;99.90;;;;;;5074030;28;19970;-67
2023/04/25 03:48:00;;;;;;;;;;;5.90;99.90;;;;;;5071400;28;20437;-69
2023/04/25 03:50:30;;;;;;;;;;;5.90;99.90;;;;;;5075725;28;20450;-67
2023/04/25 03:52:57;;;;;;;;;;;5.80;99.90;;;;;;5075748;28;20410;-67
2023/04/25 03:55:27;;;;;;;;;;;5.80;99.90;;;;;;5074164;28;19928;-68
2023/04/25 03:57:54;;;;;;;;;;;5.80;99.90;;;;;;5071080;28;19924;-68
2023/04/25 04:00:21;;;;;;;;;;;5.80;99.90;;;;;;5072121;28;20466;-68
2023/04/25 04:02:51;;;;;;;;;;;5.80;99.90;;;;;;5067599;28;19924;-67
2023/04/25 04:05:19;;;;;;;;;;;5.80;99.90;;;;;;5075507;28;19924;-68
2023/04/25 04:07:54;;;;;;;;;;;5.80;99.90;;;;;;5075496;28;19996;-68
2023/04/25 04:10:22;;;;;;;;;;;5.80;99.90;;;;;;5075468;28;20353;-68
2023/04/25 04:12:49;;;;;;;;;;;5.80;99.90;;;;;;5074036;28;19952;-67
2023/04/25 04:15:15;;;;;;;;;;;5.80;99.90;;;;;;5072307;28;19931;-68
2023/04/25 04:17:46;;;;;;;;;;;5.80;99.90;;;;;;5072345;28;19933;-68
2023/04/25 04:20:13;;;;;;;;;;;5.90;99.90;;;;;;5069552;28;19928;-67
2023/04/25 04:22:41;;;;;;;;;;;5.90;99.90;;;;;;5073950;28;19924;-67
2023/04/25 04:25:12;;;;;;;;;;;5.90;99.90;;;;;;5070262;28;19924;-67
2023/04/25 04:28:02;;;;;;;;;;;5.90;99.90;;;;;;5089115;28;20005;-67
2023/04/25 04:30:39;;;;;;;;;;;5.90;99.90;;;;;;5068115;28;19974;-67
2023/04/25 04:33:08;;;;;;;;;;;5.90;99.90;;;;;;5075087;28;20367;-68
2023/04/25 04:35:35;;;;;;;;;;;5.90;99.90;;;;;;5074980;28;20022;-68
2023/04/25 04:38:02;;;;;;;;;;;5.90;99.90;;;;;;5074768;28;20010;-67
2023/04/25 04:40:35;;;;;;;;;;;5.90;99.90;;;;;;5074138;28;19924;-68
2023/04/25 04:43:19;;;;;;;;;;;6.00;99.90;;;;;;5073450;28;19924;-68
2023/04/25 04:45:56;;;;;;;;;;;6.00;99.90;;;;;;5090747;28;19930;-67
2023/04/25 04:48:56;;;;;;;;;;;6.00;99.90;;;;;;5074510;28;19931;-67
2023/04/25 04:51:45;;;;;;;;;;;6.00;99.90;;;;;;5088259;28;20474;-71
2023/04/25 04:54:32;;;;;;;;;;;6.00;99.90;;;;;;5071006;28;19982;-68
2023/04/25 04:57:20;;;;;;;;;;;6.00;99.90;;;;;;5072825;28;19977;-67
2023/04/25 04:59:57;;;;;;;;;;;6.00;99.90;;;;;;5068099;28;19934;-70
2023/04/25 05:02:46;;;;;;;;;;;6.00;99.90;;;;;;5089279;28;20418;-69
2023/04/25 05:05:32;;;;;;;;;;;6.10;99.90;;;;;;5089835;28;19931;-66
2023/04/25 05:08:19;;;;;;;;;;;6.10;99.90;;;;;;5067678;28;19924;-68
2023/04/25 05:10:55;;;;;;;;;;;6.10;99.90;;;;;;5071401;28;19924;-67
2023/04/25 05:13:42;;;;;;;;;;;6.10;99.90;;;;;;5092487;28;19950;-67
2023/04/25 05:16:19;;;;;;;;;;;6.10;99.90;;;;;;5074715;28;19924;-69
2023/04/25 05:18:55;;;;;;;;;;;6.20;99.90;;;;;;5066567;28;19971;-67
2023/04/25 05:21:43;;;;;;;;;;;6.20;99.90;;;;;;5080480;28;20382;-68
2023/04/25 05:24:28;;;;;;;;;;;6.30;99.90;;;;;;5073849;28;20310;-67
2023/04/25 05:27:14;;;;;;;;;;;6.40;99.90;;;;;;5067168;28;20310;-68
2023/04/25 05:30:06;;;;;;;;;;;6.40;99.90;;;;;;5083875;28;19931;-68
2023/04/25 05:32:42;;;;;;;;;;;6.40;99.90;;;;;;5073411;28;19924;-67
2023/04/25 05:35:09;;;;;;;;;;;6.40;99.90;;;;;;5071290;28;20386;-69
2023/04/25 05:37:43;;;;;;;;;;;6.50;99.90;;;;;;5070563;28;19924;-69
2023/04/25 05:40:12;;;;;;;;;;;6.50;99.90;;;;;;5071391;28;19931;-68
2023/04/25 05:43:06;;;;;;;;;;;6.50;99.90;;;;;;5085881;28;20507;-69
2023/04/25 05:45:57;;;;;;;;;;;6.60;99.90;;;;;;5063354;28;19928;-68
2023/04/25 05:48:53;;;;;;;;;;;6.60;99.90;;;;;;5072878;28;19924;-69
2023/04/25 05:51:53;;;;;;;;;;;6.60;99.90;;;;;;5070935;28;19931;-68
2023/04/25 05:54:38;;;;;;;;;;;6.60;99.90;;;;;;5088773;28;19994;-70
2023/04/25 05:57:05;;;;;;;;;;;6.60;99.90;;;;;;5072637;28;20018;-69
2023/04/25 05:59:32;;;;;;;;;;;6.70;99.90;;;;;;5089211;28;19924;-69
2023/04/25 06:02:01;;;;;;;;;;;6.70;99.90;;;;;;5065038;28;19967;-69
2023/04/25 06:04:29;;;;;;;;;;;6.80;99.90;;;;;;5072292;28;20279;-68
2023/04/25 06:06:56;;;;;;;;;;;6.80;99.90;;;;;;5069104;28;19932;-69
2023/04/25 06:09:23;;;;;;;;;;;6.90;99.90;;;;;;5070519;28;19924;-69
2023/04/25 06:11:50;;;;;;;;;;;6.90;99.90;;;;;;5066899;28;20035;-69
2023/04/25 06:14:17;;;;;;;;;;;6.90;99.90;;;;;;5072192;28;19946;-69
2023/04/25 06:16:48;;;;;;;;;;;6.90;99.90;;;;;;5072643;28;19939;-69
2023/04/25 06:19:17;;;;;;;;;;;6.90;99.90;;;;;;5070992;28;19939;-69
2023/04/25 06:21:44;;;;;;;;;;;6.90;99.90;;;;;;5071026;28;19927;-68
2023/04/25 06:24:11;;;;;;;;;;;7.00;99.90;;;;;;5072527;28;19931;-68
2023/04/25 06:26:38;;;;;;;;;;;7.10;99.90;;;;;;5076131;28;19924;-68
2023/04/25 06:29:05;;;;;;;;;;;7.10;99.90;;;;;;5076377;28;19960;-67
2023/04/25 06:31:33;;;;;;;;;;;7.10;99.90;;;;;;5068403;28;19977;-69
2023/04/25 06:34:00;;;;;;;;;;;7.20;99.90;;;;;;5076202;28;19924;-69
2023/04/25 06:36:30;;;;;;;;;;;7.20;99.90;;;;;;5075461;28;19986;-68
2023/04/25 06:39:04;;;;;;;;;;;7.30;99.90;;;;;;5066973;28;19923;-70
2023/04/25 06:41:31;;;;;;;;;;;7.30;99.90;;;;;;5076281;28;19928;-67
2023/04/25 06:44:01;;;;;;;;;;;7.30;99.90;;;;;;5075192;28;19924;-68
2023/04/25 06:46:48;;;;;;;;;;;7.40;99.90;;;;;;5093656;28;20462;-69
2023/04/25 06:49:15;;;;;;;;;;;7.60;99.90;;;;;;5086952;28;19924;-69
2023/04/25 06:51:44;;;;;;;;;;;7.60;99.90;;;;;;5089081;28;19931;-69
2023/04/25 06:54:11;;;;;;;;;;;7.80;99.90;;;;;;5075744;28;20383;-68
2023/04/25 06:56:46;;;;;;;;;;;7.70;99.90;;;;;;5092676;28;19956;-69
2023/04/25 06:59:14;;;;;;;;;;;7.80;99.90;;;;;;5071751;28;19947;-69
2023/04/25 07:01:43;;;;;;;;;;;7.80;99.90;;;;;;5093076;28;19951;-69
2023/04/25 07:04:15;;;;;;;;;;;7.80;99.90;;;;;;5072156;28;20018;-70
2023/04/25 07:06:50;;;;;;;;;;;7.80;99.90;;;;;;5076017;28;19924;-69
2023/04/25 07:09:33;;;;;;;;;;;7.90;99.90;;;;;;5075637;28;19924;-70
2023/04/25 07:12:01;;;;;;;;;;;7.90;99.90;;;;;;5068128;28;19924;-69
2023/04/25 07:14:28;;;;;;;;;;;7.80;99.90;;;;;;5075355;28;19924;-69
2023/04/25 07:16:56;;;;;;;;;;;7.90;99.90;;;;;;5075332;28;20026;-69
2023/04/25 07:19:26;;;;;;;;;;;8.00;99.90;;;;;;5075261;28;19986;-68
2023/04/25 07:21:56;;;;;;;;;;;8.00;99.90;;;;;;5074919;28;19931;-69
2023/04/25 07:24:23;;;;;;;;;;;8.10;99.90;;;;;;5073300;28;19935;-69
2023/04/25 07:26:51;;;;;;;;;;;8.20;99.90;;;;;;5074985;28;20020;-69
2023/04/25 07:29:41;;;;;;;;;;;8.20;99.90;;;;;;5081834;28;19931;-69
2023/04/25 07:32:08;;;;;;;;;;;8.30;99.90;;;;;;5071295;28;20464;-68
2023/04/25 07:34:37;;;;;;;;;;;8.20;99.90;;;;;;5074580;28;19924;-69
2023/04/25 07:37:05;;;;;;;;;;;8.30;99.90;;;;;;5075086;28;19924;-69
2023/04/25 07:39:39;;;;;;;;;;;8.40;99.90;;;;;;5071443;28;19932;-68
2023/04/25 07:42:07;;;;;;;;;;;8.60;99.90;;;;;;5074759;28;19924;-69
2023/04/25 07:44:38;;;;;;;;;;;8.60;99.90;;;;;;5073764;28;19924;-69
2023/04/25 07:47:06;;;;;;;;;;;8.70;99.90;;;;;;5075028;28;20387;-69
2023/04/25 07:49:33;;;;;;;;;;;8.80;99.90;;;;;;5066171;28;19924;-69
2023/04/25 07:52:00;;;;;;;;;;;8.80;99.90;;;;;;5075086;28;19924;-70
2023/04/25 07:54:28;;;;;;;;;;;8.80;99.90;;;;;;5074055;28;20383;-69
2023/04/25 07:57:02;;;;;;;;;;;8.90;99.90;;;;;;5073864;28;20391;-69
2023/04/25 07:59:30;;;;;;;;;;;9.00;99.90;;;;;;5074413;28;19977;-69
2023/04/25 08:02:01;;;;;;;;;;;9.00;99.90;;;;;;5067534;28;19977;-69
2023/04/25 08:04:28;;;;;;;;;;;9.10;99.90;;;;;;5073737;28;20027;-69
2023/04/25 08:07:02;;;;;;;;;;;9.10;99.90;;;;;;5084262;28;19936;-71
2023/04/25 08:09:36;;;;;;;;;;;9.20;99.90;;;;;;5074402;28;20383;-69
2023/04/25 08:12:06;;;;;;;;;;;9.40;99.90;;;;;;5074201;28;20310;-69
2023/04/25 08:14:36;;;;;;;;;;;9.50;99.90;;;;;;5072376;28;19925;-70
2023/04/25 08:17:05;;;;;;;;;;;9.70;99.90;;;;;;5067758;28;20014;-69
2023/04/25 08:19:33;;;;;;;;;;;9.60;99.90;;;;;;5074018;28;19977;-69
2023/04/25 08:22:00;;;;;;;;;;;9.60;99.90;;;;;;5074320;28;19935;-68
2023/04/25 08:24:37;;;;;;;;;;;9.50;99.90;;;;;;5073926;28;20019;-69
2023/04/25 08:27:04;;;;;;;;;;;9.60;99.90;;;;;;5074564;28;20444;-68
2023/04/25 08:29:31;;;;;;;;;;;9.70;99.90;;;;;;5074145;28;19924;-70
2023/04/25 08:31:58;;;;;;;;;;;9.60;99.90;;;;;;5070208;28;19924;-69
2023/04/25 08:34:26;;;;;;;;;;;9.60;99.90;;;;;;5070910;28;19924;-70
2023/04/25 08:36:53;;;;;;;;;;;9.70;99.90;;;;;;5071370;28;19955;-69
2023/04/25 08:39:46;;;;;;;;;;;9.60;99.90;;;;;;5064850;28;19924;-69
2023/04/25 08:42:35;;;;;;;;;;;9.70;99.90;;;;;;5075545;28;19925;-68
2023/04/25 08:45:04;;;;;;;;;;;9.80;99.90;;;;;;5062417;28;19932;-69
2023/04/25 08:47:35;;;;;;;;;;;9.90;99.90;;;;;;5070382;28;19924;-68
2023/04/25 08:50:03;;;;;;;;;;;10.00;99.90;;;;;;5066842;28;19924;-70
2023/04/25 08:52:32;;;;;;;;;;;10.00;99.90;;;;;;5068764;28;19928;-69
2023/04/25 08:55:02;;;;;;;;;;;10.00;99.90;;;;;;5073236;28;20399;-69
2023/04/25 08:57:30;;;;;;;;;;;10.30;99.90;;;;;;5073288;28;20019;-68
2023/04/25 08:59:58;;;;;;;;;;;10.40;99.90;;;;;;5066026;28;19939;-71
2023/04/25 09:02:25;;;;;;;;;;;10.60;99.90;;;;;;5071308;28;19924;-69
2023/04/25 09:04:54;;;;;;;;;;;10.70;99.90;;;;;;5071339;28;20002;-69
2023/04/25 09:07:21;;;;;;;;;;;10.60;99.90;;;;;;5071938;28;19924;-68
2023/04/25 09:09:48;;;;;;;;;;;10.60;99.90;;;;;;5066390;28;19924;-69
2023/04/25 09:12:20;;;;;;;;;;;10.60;99.90;;;;;;5071782;28;19928;-68
2023/04/25 09:15:02;;;;;;;;;;;10.60;99.90;;;;;;5082531;28;19998;-69
2023/04/25 09:17:44;;;;;;;;;;;10.40;99.90;;;;;;5070246;28;20279;-68
2023/04/25 09:20:13;;;;;;;;;;;10.40;99.90;;;;;;5066747;28;20413;-68
2023/04/25 09:22:40;;;;;;;;;;;10.40;99.90;;;;;;5068378;28;20429;-68
2023/04/25 09:25:11;;;;;;;;;;;10.40;99.90;;;;;;5067624;28;20395;-69
2023/04/25 09:27:50;;;;;;;;;;;10.30;99.90;;;;;;5071846;28;20385;-69
2023/04/25 09:30:29;;;;;;;;;;;10.20;99.90;;;;;;5073036;28;19928;-69
2023/04/25 09:33:07;;;;;;;;;;;10.30;99.90;;;;;;5064447;28;19931;-67
2023/04/25 09:35:39;;;;;;;;;;;10.40;99.90;;;;;;5069044;28;20408;-67
2023/04/25 09:38:12;;;;;;;;;;;10.50;99.90;;;;;;5072124;28;20371;-68
2023/04/25 09:41:08;;;;;;;;;;;10.50;99.90;;;;;;5074326;28;19931;-68
2023/04/25 09:43:46;;;;;;;;;;;10.60;99.90;;;;;;5072854;28;19939;-68
2023/04/25 09:46:13;;;;;;;;;;;10.80;99.90;;;;;;5064413;28;20015;-67
2023/04/25 09:48:50;;;;;;;;;;;10.80;99.90;;;;;;5073483;28;19924;-67
2023/04/25 09:51:18;;;;;;;;;;;11.00;99.90;;;;;;5069510;28;20440;-67
2023/04/25 09:53:49;;;;;;;;;;;10.90;99.90;;;;;;5071719;28;20035;-69
2023/04/25 09:56:26;;;;;;;;;;;10.70;99.90;;;;;;5077852;28;20045;-70
2023/04/25 09:58:54;;;;;;;;;;;10.50;99.90;;;;;;5082180;28;19924;-70
2023/04/25 10:01:22;;;;;;;;;;;10.50;99.90;;;;;;5071894;28;19935;-69
2023/04/25 10:04:11;;;;;;;;;;;10.50;99.90;;;;;;5075432;28;19928;-68
2023/04/25 10:06:54;;;;;;;;;;;11.00;99.90;;;;;;5078307;28;19932;-67
2023/04/25 10:09:22;;;;;;;;;;;11.40;99.90;;;;;;5081045;28;20374;-68
2023/04/25 10:11:50;;;;;;;;;;;11.50;99.90;;;;;;5076469;28;19935;-66
2023/04/25 10:14:19;;;;;;;;;;;11.60;99.90;;;;;;5072295;28;19931;-67
2023/04/25 10:16:46;;;;;;;;;;;11.80;99.90;;;;;;5077780;28;20391;-68
2023/04/25 10:19:14;;;;;;;;;;;11.90;99.90;;;;;;5073678;28;19947;-70
2023/04/25 10:21:44;;;;;;;;;;;11.70;99.90;;;;;;5070011;28;19994;-67
2023/04/25 10:24:11;;;;;;;;;;;11.90;99.90;;;;;;5071407;28;19924;-72
2023/04/25 10:26:40;;;;;;;;;;;12.10;99.90;;;;;;5075274;28;20395;-77
2023/04/25 10:29:06;;;;;;;;;;;11.70;99.90;;;;;;5069491;28;19974;-71
2023/04/25 10:31:45;;;;;;;;;;;11.70;99.90;;;;;;5073564;28;19924;-68
2023/04/25 10:34:12;;;;;;;;;;;11.70;99.90;;;;;;5073228;28;19931;-77
2023/04/25 10:36:39;;;;;;;;;;;11.90;99.90;;;;;;5063846;28;19932;-72
2023/04/25 10:39:07;;;;;;;;;;;11.90;99.90;;;;;;5073559;28;19931;-71
2023/04/25 10:41:46;;;;;;;;;;;11.90;99.90;;;;;;5072656;28;19959;-73
2023/04/25 10:44:13;;;;;;;;;;;12.00;99.90;;;;;;5079870;28;19924;-73
2023/04/25 10:46:41;;;;;;;;;;;12.10;99.90;;;;;;5071816;28;20352;-70
2023/04/25 10:49:09;;;;;;;;;;;12.20;99.90;;;;;;5075601;28;19924;-69
2023/04/25 10:51:37;;;;;;;;;;;12.30;99.90;;;;;;5075612;28;19924;-69
2023/04/25 10:54:04;;;;;;;;;;;12.70;99.90;;;;;;5072196;28;19924;-71
2023/04/25 10:56:32;;;;;;;;;;;12.30;99.90;;;;;;5078545;28;20344;-73
2023/04/25 10:59:06;;;;;;;;;;;12.00;99.90;;;;;;5074447;28;19959;-69
2023/04/25 11:01:36;;;;;;;;;;;11.70;99.90;;;;;;5072946;28;19960;-69
2023/04/25 11:04:05;;;;;;;;;;;11.50;99.90;;;;;;5075202;28;19940;-69
2023/04/25 11:06:37;;;;;;;;;;;11.30;99.90;;;;;;5075423;28;19924;-69
2023/04/25 11:09:04;;;;;;;;;;;11.40;99.90;;;;;;5092492;28;20399;-69
2023/04/25 11:11:31;;;;;;;;;;;11.30;99.90;;;;;;5074514;28;19924;-68
2023/04/25 11:13:57;;;;;;;;;;;11.40;99.90;;;;;;5075236;28;20360;-68
2023/04/25 11:16:25;;;;;;;;;;;11.40;99.90;;;;;;5073037;28;19928;-68
2023/04/25 11:18:51;;;;;;;;;;;11.50;99.90;;;;;;5075221;28;20337;-69
2023/04/25 11:21:19;;;;;;;;;;;11.40;99.90;;;;;;5075227;28;19931;-68
2023/04/25 11:23:46;;;;;;;;;;;11.40;99.90;;;;;;5071435;28;19931;-71
2023/04/25 11:26:13;;;;;;;;;;;11.90;99.90;;;;;;5075172;28;19924;-68
2023/04/25 11:28:40;;;;;;;;;;;12.50;99.90;;;;;;5070719;28;19924;-68
2023/04/25 11:31:09;;;;;;;;;;;13.60;99.90;;;;;;5073873;28;19924;-68
2023/04/25 11:33:36;;;;;;;;;;;16.10;99.90;;;;;;5074907;28;20298;-68
2023/04/25 11:36:03;;;;;;;;;;;16.70;99.90;;;;;;5074871;28;19928;-68
2023/04/25 11:38:31;;;;;;;;;;;;;;;;;;5070286;28;19924;-68
2023/04/25 11:40:58;;;;;;;;;;;;;;;;;;5074749;28;20346;-68
2023/04/25 11:43:25;;;;;;;;;;;;;;;;;;5074502;28;19936;-68
2023/04/25 11:45:53;;;;;;;;;;;17.50;99.90;;;;;;5074631;28;19928;-69
2023/04/25 11:48:20;;;;;;;;;;;15.70;99.90;;;;;;5074861;28;19978;-70
2023/04/25 11:50:47;;;;;;;;;;;15.70;99.90;;;;;;5072264;28;19985;-68
2023/04/25 11:53:13;;;;;;;;;;;16.80;99.90;;;;;;5072030;28;19924;-67
2023/04/25 11:55:40;;;;;;;;;;;16.70;99.90;;;;;;5071987;28;19924;-69
2023/04/25 11:58:08;;;;;;;;;;;16.50;99.90;;;;;;5069442;28;20019;-69
2023/04/25 12:00:35;;;;;;;;;;;17.40;99.90;;;;;;5075981;28;19924;-68
2023/04/25 12:03:03;;;;;;;;;;;18.30;99.90;;;;;;5069789;28;20019;-69
2023/04/25 12:05:32;;;;;;;;;;;;;;;;;;5073879;28;19924;-68
2023/04/25 12:07:59;;;;;;;;;;;;;;;;;;5073982;28;20471;-68
2023/04/25 12:10:26;;;;;;;;;;;15.80;99.90;;;;;;5072575;28;19941;-69
2023/04/25 12:12:53;;;;;;;;;;;15.00;99.90;;;;;;5066683;28;19960;-69
2023/04/25 12:15:25;;;;;;;;;;;15.00;99.90;;;;;;5069884;28;19924;-69
2023/04/25 12:17:52;;;;;;;;;;;15.70;99.90;;;;;;5072576;28;20284;-68
2023/04/25 12:20:23;;;;;;;;;;;17.80;99.90;;;;;;5074033;28;19952;-67
2023/04/25 12:22:50;;;;;;;;;;;17.90;99.90;;;;;;5073031;28;19963;-68
2023/04/25 12:25:32;;;;;;;;;;;16.20;99.90;;;;;;5067878;28;20009;-69
2023/04/25 12:28:09;;;;;;;;;;;14.90;99.90;;;;;;5076885;28;19930;-69
2023/04/25 12:30:51;;;;;;;;;;;13.60;99.90;;;;;;5071507;28;19928;-69
2023/04/25 12:33:18;;;;;;;;;;;13.00;99.90;;;;;;5078391;28;20294;-69
2023/04/25 12:35:46;;;;;;;;;;;12.50;99.90;;;;;;5070100;28;19993;-68
2023/04/25 12:38:21;;;;;;;;;;;12.30;99.90;;;;;;5076855;28;20406;-69
2023/04/25 12:40:47;;;;;;;;;;;12.10;99.90;;;;;;5074455;28;19989;-70
2023/04/25 12:43:14;;;;;;;;;;;12.00;99.90;;;;;;5061388;28;19935;-68
2023/04/25 12:45:41;;;;;;;;;;;12.10;99.90;;;;;;5073387;28;19932;-69
2023/04/25 12:48:08;;;;;;;;;;;12.10;99.90;;;;;;5073581;28;19932;-69
2023/04/25 12:50:35;;;;;;;;;;;12.20;99.90;;;;;;5070671;28;19954;-67
2023/04/25 12:53:03;;;;;;;;;;;12.40;99.90;;;;;;5073112;28;19931;-69
2023/04/25 12:55:30;;;;;;;;;;;12.60;99.90;;;;;;5073519;28;19932;-69
2023/04/25 12:57:57;;;;;;;;;;;12.70;99.90;;;;;;5071517;28;19971;-69
2023/04/25 13:00:24;;;;;;;;;;;13.00;99.90;;;;;;5070340;28;19924;-69
2023/04/25 13:02:51;;;;;;;;;;;13.70;99.90;;;;;;5073222;28;20383;-68
2023/04/25 13:05:18;;;;;;;;;;;14.90;99.90;;;;;;5084674;28;20019;-69
2023/04/25 13:07:44;;;;;;;;;;;16.00;99.90;;;;;;5064728;28;19931;-69
2023/04/25 13:10:13;;;;;;;;;;;16.20;99.90;;;;;;5065345;28;19923;-69
2023/04/25 13:12:55;;;;;;;;;;;15.60;99.90;;;;;;5149663;27;19916;-69
2023/04/25 13:15:22;;;;;;;;;;;15.10;99.90;;;;;;5119614;27;19923;-70
2023/04/25 13:17:49;;;;;;;;;;;15.40;99.90;;;;;;5108635;28;19935;-69
2023/04/25 13:20:16;;;;;;;;;;;15.50;99.90;;;;;;5108788;28;20015;-68
2023/04/25 13:22:45;;;;;;;;;;;15.40;99.90;;;;;;5110372;28;19985;-69
2023/04/25 13:25:12;;;;;;;;;;;16.00;99.90;;;;;;5111752;28;19923;-69
2023/04/25 13:27:40;;;;;;;;;;;16.50;99.90;;;;;;5110263;28;19931;-68
2023/04/25 13:30:09;;;;;;;;;;;17.10;99.90;;;;;;5115647;27;19934;-69
2023/04/25 13:32:36;;;;;;;;;;;17.00;99.90;;;;;;5111607;28;19924;-69
2023/04/25 13:35:03;;;;;;;;;;;;;;;;;;5113579;28;19924;-69
2023/04/25 13:37:32;;;;;;;;;;;;;;;;;;5109866;28;19924;-69
2023/04/25 13:39:59;;;;;;;;;;;;;;;;;;5118955;28;19931;-69
2023/04/25 13:42:26;;;;;;;;;;;15.00;99.90;;;;;;5111219;28;19934;-70
2023/04/25 13:44:53;;;;;;;;;;;14.00;99.90;;;;;;5111220;28;19924;-69
2023/04/25 13:47:21;;;;;;;;;;;13.40;99.90;;;;;;5116163;27;19924;-71
2023/04/25 13:49:48;;;;;;;;;;;;;;;;;;5113347;28;19924;-69
2023/04/25 13:52:15;;;;;;;;;;;12.30;99.90;;;;;;5109331;27;19974;-69
2023/04/25 13:54:42;;;;;;;;;;;11.80;99.90;;;;;;5109725;28;19924;-69
2023/04/25 13:57:10;;;;;;;;;;;11.40;99.90;;;;;;5112980;28;19924;-69
2023/04/25 13:59:36;;;;;;;;;;;11.40;99.90;;;;;;5108130;27;20027;-68
2023/04/25 14:02:03;;;;;;;;;;;11.30;99.90;;;;;;5106606;28;19924;-69
2023/04/25 14:04:32;;;;;;;;;;;11.30;99.90;;;;;;5109486;28;19924;-69
2023/04/25 14:06:59;;;;;;;;;;;11.40;99.90;;;;;;5108769;28;20055;-69
2023/04/25 14:09:27;;;;;;;;;;;11.70;99.90;;;;;;5105073;27;19924;-69
2023/04/25 14:11:54;;;;;;;;;;;12.00;99.90;;;;;;5102399;28;19984;-69
2023/04/25 14:14:21;;;;;;;;;;;12.30;99.90;;;;;;5107397;28;19976;-68
2023/04/25 14:16:48;;;;;;;;;;;;;;;;;;5111569;27;19946;-69
2023/04/25 14:19:15;;;;;;;;;;;13.50;99.90;;;;;;5105474;28;19955;-69
2023/04/25 14:21:42;;;;;;;;;;;;;;;;;;5111997;28;19923;-69
2023/04/25 14:24:11;;;;;;;;;;;16.80;99.90;;;;;;5092629;28;19932;-69
2023/04/25 14:26:38;;;;;;;;;;;17.60;99.90;;;;;;5089462;28;19985;-69
2023/04/25 14:29:06;;;;;;;;;;;17.90;99.90;;;;;;5093501;28;19928;-69
2023/04/25 14:31:33;;;;;;;;;;;18.30;99.90;;;;;;5092921;28;20387;-69
2023/04/25 14:34:00;;;;;;;;;;;19.00;99.90;;;;;;5101072;28;19923;-68
2023/04/25 14:36:27;;;;;;;;;;;19.30;99.90;;;;;;5095730;28;19931;-75
2023/04/25 14:38:54;;;;;;;;;;;19.30;99.90;;;;;;5095021;28;19924;-73
2023/04/25 14:41:22;;;;;;;;;;;19.60;99.90;;;;;;5093098;28;19989;-71
2023/04/25 14:43:49;;;;;;;;;;;20.20;99.90;;;;;;5094780;28;20345;-71
2023/04/25 14:46:16;;;;;;;;;;;20.60;99.90;;;;;;5097724;28;19924;-70